createdAt,value
2023-03-20T00:02:25.568Z,86.11
2023-03-20T00:04:54.123Z,85.97
2023-03-20T00:07:22.638Z,85.93
2023-03-20T00:09:52.353Z,85.83
2023-03-20T00:12:26.069Z,85.56
2023-03-20T00:14:54.738Z,85.55
2023-03-20T00:17:23.153Z,85.64
2023-03-20T00:19:51.661Z,85.33
2023-03-20T00:22:19.946Z,85.24
2023-03-20T00:24:48.550Z,84.89
2023-03-20T00:27:19.661Z,85.28
2023-03-20T00:29:48.841Z,84.86
2023-03-20T00:32:18.236Z,84.90
2023-03-20T00:34:46.689Z,84.98
2023-03-20T00:37:14.974Z,84.96
2023-03-20T00:39:43.433Z,84.97
2023-03-20T00:42:21.641Z,84.85
2023-03-20T00:44:54.012Z,84.83
2023-03-20T00:47:27.192Z,84.46
2023-03-20T00:49:57.927Z,84.47
2023-03-20T00:52:27.235Z,84.46
2023-03-20T00:54:55.721Z,84.67
2023-03-20T00:57:30.566Z,84.89
2023-03-20T01:00:05.137Z,84.85
2023-03-20T01:02:33.872Z,84.92
2023-03-20T01:05:03.779Z,85.14
2023-03-20T01:07:32.317Z,85.10
2023-03-20T01:10:00.689Z,85.23
2023-03-20T01:12:30.851Z,85.18
2023-03-20T01:15:00.131Z,85.04
2023-03-20T01:17:29.944Z,85.35
2023-03-20T01:19:58.402Z,85.21
2023-03-20T01:22:26.809Z,85.21
2023-03-20T01:24:55.319Z,85.18
2023-03-20T01:27:23.726Z,85.43
2023-03-20T01:29:53.479Z,85.37
2023-03-20T01:32:21.869Z,85.20
2023-03-20T01:34:53.102Z,84.91
2023-03-20T01:37:27.745Z,85.09
2023-03-20T01:39:59.628Z,85.02
2023-03-20T01:42:28.782Z,84.93
2023-03-20T01:44:58.535Z,85.22
2023-03-20T01:47:28.520Z,85.27
2023-03-20T01:50:28.630Z,85.36
2023-03-20T01:53:18.718Z,85.66
2023-03-20T01:55:55.743Z,85.47
2023-03-20T01:58:33.023Z,85.54
2023-03-20T02:01:03.330Z,85.40
2023-03-20T02:03:33.098Z,85.59
2023-03-20T02:06:01.580Z,85.27
2023-03-20T02:08:52.726Z,85.38
2023-03-20T02:11:24.777Z,85.16
2023-03-20T02:13:57.028Z,84.95
2023-03-20T02:16:29.555Z,85.19
2023-03-20T02:19:42.049Z,85.27
2023-03-20T02:22:44.970Z,84.93
2023-03-20T02:26:02.057Z,84.71
2023-03-20T02:29:13.481Z,84.32
2023-03-20T02:32:29.973Z,84.12
2023-03-20T02:35:39.622Z,84.05
2023-03-20T02:39:07.924Z,84.01
2023-03-20T02:41:44.124Z,84.18
2023-03-20T02:44:20.273Z,83.94
2023-03-20T02:46:58.517Z,84.22
2023-03-20T02:49:50.925Z,84.31
2023-03-20T02:52:26.432Z,84.23
2023-03-20T02:55:10.901Z,84.29
2023-03-20T02:57:50.985Z,84.77
2023-03-20T03:00:29.530Z,84.75
2023-03-20T03:03:07.544Z,84.95
2023-03-20T03:05:42.775Z,84.99
2023-03-20T03:08:14.704Z,85.06
2023-03-20T03:10:49.065Z,85.27
2023-03-20T03:13:24.163Z,85.25
2023-03-20T03:15:56.963Z,85.40
2023-03-20T03:18:28.318Z,85.24
2023-03-20T03:20:59.692Z,85.34
2023-03-20T03:23:32.724Z,85.48
2023-03-20T03:26:05.442Z,85.49
2023-03-20T03:28:38.956Z,85.58
2023-03-20T03:31:10.557Z,85.94
2023-03-20T03:33:41.695Z,85.96
2023-03-20T03:36:18.029Z,86.25
2023-03-20T03:38:55.942Z,86.56
2023-03-20T03:41:31.622Z,86.58
2023-03-20T03:44:10.467Z,86.75
2023-03-20T03:46:44.916Z,86.84
2023-03-20T03:49:20.246Z,86.64
2023-03-20T03:51:56.128Z,86.81
2023-03-20T03:54:27.974Z,86.76
2023-03-20T03:57:26.780Z,87.44
2023-03-20T03:59:57.605Z,87.98
2023-03-20T04:02:26.288Z,87.86
2023-03-20T04:04:56.325Z,87.96
2023-03-20T04:07:29.075Z,88.00
2023-03-20T04:09:57.397Z,88.74
2023-03-20T04:12:37.136Z,88.59
2023-03-20T04:15:08.831Z,88.28
2023-03-20T04:17:37.198Z,88.19
2023-03-20T04:20:07.814Z,88.57
2023-03-20T04:22:37.802Z,88.26
2023-03-20T04:25:11.500Z,88.41
2023-03-20T04:27:41.234Z,88.76
2023-03-20T04:30:18.800Z,88.94
2023-03-20T04:33:10.719Z,89.03
2023-03-20T04:35:59.425Z,89.47
2023-03-20T04:38:28.080Z,89.21
2023-03-20T04:40:57.073Z,89.05
2023-03-20T04:43:26.944Z,89.34
2023-03-20T04:45:55.337Z,89.34
2023-03-20T04:48:23.808Z,89.50
2023-03-20T04:50:52.478Z,89.26
2023-03-20T04:53:27.269Z,89.25
2023-03-20T04:55:56.527Z,89.78
2023-03-20T04:58:26.534Z,90.04
2023-03-20T05:00:55.108Z,90.00
2023-03-20T05:03:24.237Z,90.44
2023-03-20T05:05:52.918Z,90.58
2023-03-20T05:08:21.908Z,90.54
2023-03-20T05:10:54.453Z,90.51
2023-03-20T05:13:59.662Z,90.36
2023-03-20T05:16:45.490Z,90.51
2023-03-20T05:19:24.279Z,91.13
2023-03-20T05:22:10.880Z,90.88
2023-03-20T05:24:42.063Z,90.98
2023-03-20T05:27:23.431Z,90.91
2023-03-20T05:30:15.428Z,91.05
2023-03-20T05:33:02.213Z,91.06
2023-03-20T05:35:30.847Z,90.86
2023-03-20T05:38:09.708Z,90.78
2023-03-20T05:40:59.952Z,90.90
2023-03-20T05:43:54.345Z,90.67
2023-03-20T05:46:46.937Z,90.90
2023-03-20T05:49:35.728Z,91.05
2023-03-20T05:52:22.556Z,90.60
2023-03-20T05:55:07.399Z,90.65
2023-03-20T05:57:56.148Z,90.53
2023-03-20T06:00:38.777Z,90.59
2023-03-20T06:03:43.846Z,90.80
2023-03-20T06:06:17.161Z,90.24
2023-03-20T06:08:50.375Z,90.26
2023-03-20T06:11:19.426Z,90.50
2023-03-20T06:13:47.845Z,90.30
2023-03-20T06:16:16.385Z,90.04
2023-03-20T06:18:46.224Z,89.95
2023-03-20T06:21:15.344Z,89.69
2023-03-20T06:23:43.979Z,89.47
2023-03-20T06:26:12.537Z,89.80
2023-03-20T06:28:57.946Z,89.77
2023-03-20T06:31:26.510Z,89.68
2023-03-20T06:33:56.549Z,90.18
2023-03-20T06:36:25.994Z,89.93
2023-03-20T06:39:00.835Z,89.55
2023-03-20T06:41:34.776Z,89.65
2023-03-20T06:44:07.551Z,89.28
2023-03-20T06:47:02.141Z,89.52
2023-03-20T06:49:31.856Z,89.65
2023-03-20T06:52:00.429Z,89.90
2023-03-20T06:54:29.076Z,89.53
2023-03-20T06:56:57.414Z,89.45
2023-03-20T06:59:26.543Z,89.07
2023-03-20T07:01:58.351Z,88.96
2023-03-20T07:04:27.703Z,88.91
2023-03-20T07:07:01.256Z,89.17
2023-03-20T07:09:29.969Z,89.05
2023-03-20T07:11:58.396Z,89.13
2023-03-20T07:14:27.172Z,89.36
2023-03-20T07:16:59.661Z,89.53
2023-03-20T07:19:28.520Z,89.29
2023-03-20T07:22:03.871Z,89.90
2023-03-20T07:24:40.212Z,89.85
2023-03-20T07:27:08.619Z,89.96
2023-03-20T07:29:37.842Z,90.39
2023-03-20T07:32:12.616Z,90.26
2023-03-20T07:34:50.143Z,91.09
2023-03-20T07:37:21.382Z,91.30
2023-03-20T07:40:03.050Z,91.62
2023-03-20T07:42:36.661Z,91.60
2023-03-20T07:45:14.076Z,91.84
2023-03-20T07:47:47.088Z,91.96
2023-03-20T07:50:15.975Z,92.33
2023-03-20T07:52:49.182Z,92.55
2023-03-20T07:55:18.635Z,92.84
2023-03-20T07:57:49.171Z,93.29
2023-03-20T08:00:29.294Z,93.63
2023-03-20T08:02:58.227Z,93.64
2023-03-20T08:05:27.346Z,93.60
2023-03-20T08:07:57.413Z,93.80
2023-03-20T08:10:26.284Z,94.06
2023-03-20T08:12:54.670Z,94.27
2023-03-20T08:15:23.518Z,94.50
2023-03-20T08:17:51.878Z,94.58
2023-03-20T08:20:21.776Z,94.44
2023-03-20T08:22:50.410Z,95.03
2023-03-20T08:25:20.524Z,94.87
2023-03-20T08:27:49.828Z,95.30
2023-03-20T08:30:18.366Z,95.87
2023-03-20T08:32:46.814Z,96.07
2023-03-20T08:35:31.743Z,96.27
2023-03-20T08:38:01.655Z,96.50
2023-03-20T08:40:33.606Z,96.71
2023-03-20T08:43:06.152Z,97.07
2023-03-20T08:45:35.366Z,97.13
2023-03-20T08:48:04.182Z,97.34
2023-03-20T08:50:33.565Z,97.28
2023-03-20T08:53:02.080Z,97.23
2023-03-20T08:55:31.961Z,96.85
2023-03-20T08:58:01.044Z,97.04
2023-03-20T09:00:29.374Z,97.19
2023-03-20T09:02:57.797Z,97.67
2023-03-20T09:05:26.214Z,97.19
2023-03-20T09:07:54.576Z,97.37
2023-03-20T09:10:23.258Z,97.67
2023-03-20T09:12:53.318Z,97.87
2023-03-20T09:15:21.727Z,97.92
2023-03-20T09:17:50.050Z,98.25
2023-03-20T09:20:18.581Z,98.33
2023-03-20T09:22:47.012Z,98.43
2023-03-20T09:25:15.365Z,98.96
2023-03-20T09:27:43.786Z,99.13
2023-03-20T09:30:15.340Z,98.52
2023-03-20T09:32:43.771Z,98.33
2023-03-20T09:35:12.454Z,98.18
2023-03-20T09:37:40.973Z,98.58
2023-03-20T09:40:12.208Z,98.49
2023-03-20T09:42:51.822Z,98.34
2023-03-20T09:45:32.968Z,98.95
2023-03-20T09:48:07.365Z,98.70
2023-03-20T09:50:40.369Z,98.41
2023-03-20T09:53:14.750Z,98.27
2023-03-20T09:55:45.273Z,97.91
2023-03-20T09:58:19.874Z,98.40
2023-03-20T10:00:49.878Z,98.40
2023-03-20T10:03:22.404Z,98.12
2023-03-20T10:05:58.304Z,98.82
2023-03-20T10:08:31.930Z,98.21
2023-03-20T10:11:16.804Z,99.07
2023-03-20T10:14:00.482Z,99.22
2023-03-20T10:16:47.039Z,98.80
2023-03-20T10:19:24.210Z,98.65
2023-03-20T10:22:00.425Z,99.00
2023-03-20T10:24:32.397Z,98.75
2023-03-20T10:27:07.911Z,99.30
2023-03-20T10:29:50.236Z,99.70
2023-03-20T10:32:27.738Z,99.67
2023-03-20T10:35:10.124Z,99.74
2023-03-20T10:37:55.668Z,99.54
2023-03-20T10:40:31.994Z,99.92
2023-03-20T10:43:04.644Z,100.00
2023-03-20T10:45:39.586Z,99.88
2023-03-20T10:48:18.605Z,100.00
2023-03-20T10:50:52.427Z,100.00
2023-03-20T10:53:36.273Z,99.86
2023-03-20T10:56:11.809Z,99.58
2023-03-20T10:58:42.998Z,99.43
2023-03-20T11:01:11.981Z,99.59
2023-03-20T11:03:41.929Z,100.00
2023-03-20T11:06:19.856Z,100.00
2023-03-20T11:08:51.945Z,99.93
2023-03-20T11:11:26.555Z,99.77
2023-03-20T11:13:55.142Z,99.66
2023-03-20T11:16:26.189Z,99.86
2023-03-20T11:18:56.078Z,99.69
2023-03-20T11:21:28.292Z,99.38
2023-03-20T11:23:57.411Z,99.47
2023-03-20T11:26:37.956Z,99.74
2023-03-20T11:29:11.813Z,99.90
2023-03-20T11:31:42.025Z,100.00
2023-03-20T11:34:26.751Z,100.00
2023-03-20T11:37:09.579Z,100.00
2023-03-20T11:39:40.205Z,100.00
2023-03-20T11:42:24.909Z,100.00
2023-03-20T11:45:00.589Z,100.00
2023-03-20T11:47:34.213Z,100.00
2023-03-20T11:50:07.528Z,100.00
2023-03-20T11:52:38.751Z,100.00
2023-03-20T11:55:25.266Z,100.00
2023-03-20T11:57:58.341Z,100.00
2023-03-20T12:00:30.796Z,100.00
2023-03-20T12:02:59.165Z,100.00
2023-03-20T12:05:35.502Z,100.00
2023-03-20T12:08:10.536Z,100.00
2023-03-20T12:10:44.118Z,100.00
2023-03-20T12:13:18.298Z,100.00
2023-03-20T12:15:51.792Z,100.00
2023-03-20T12:18:30.261Z,100.00
2023-03-20T12:21:08.761Z,100.00
2023-03-20T12:23:43.274Z,100.00
2023-03-20T12:26:16.213Z,100.00
2023-03-20T12:28:53.565Z,100.00
2023-03-20T12:31:27.431Z,100.00
2023-03-20T12:34:01.606Z,100.00
2023-03-20T12:36:36.050Z,100.00
2023-03-20T12:39:07.902Z,100.00
2023-03-20T12:41:45.161Z,100.00
2023-03-20T12:44:31.728Z,100.00
2023-03-20T12:47:19.785Z,100.00
2023-03-20T12:49:58.526Z,100.00
2023-03-20T12:52:41.498Z,100.00
2023-03-20T12:55:35.708Z,100.00
2023-03-20T12:58:18.306Z,100.00
2023-03-20T13:00:55.329Z,100.00
2023-03-20T13:03:41.826Z,100.00
2023-03-20T13:06:16.662Z,100.00
2023-03-20T13:09:33.848Z,100.00
2023-03-20T13:12:12.149Z,100.00
2023-03-20T13:14:48.339Z,100.00
2023-03-20T13:17:26.346Z,100.00
2023-03-20T13:20:17.142Z,100.00
2023-03-20T13:23:06.243Z,100.00
2023-03-20T13:26:10.605Z,100.00
2023-03-20T13:28:50.535Z,100.00
2023-03-20T13:31:40.120Z,100.00
2023-03-20T13:34:25.933Z,100.00
2023-03-20T13:37:23.424Z,100.00
2023-03-20T13:40:07.156Z,100.00
2023-03-20T13:42:44.927Z,100.00
2023-03-20T13:45:35.864Z,100.00
2023-03-20T13:48:23.166Z,100.00
2023-03-20T13:51:02.193Z,100.00
2023-03-20T13:53:38.150Z,100.00
2023-03-20T13:56:17.808Z,100.00
2023-03-20T13:59:21.078Z,100.00
2023-03-20T14:01:58.143Z,100.00
2023-03-20T14:04:29.372Z,100.00
2023-03-20T14:06:59.912Z,100.00
2023-03-20T14:09:32.805Z,100.00
2023-03-20T14:12:07.317Z,100.00
2023-03-20T14:14:44.777Z,100.00
2023-03-20T14:17:20.537Z,100.00
2023-03-20T14:19:50.514Z,100.00
2023-03-20T14:22:21.798Z,100.00
2023-03-20T14:24:58.168Z,100.00
2023-03-20T14:27:43.371Z,100.00
2023-03-20T14:30:44.382Z,100.00
2023-03-20T14:33:32.540Z,100.00
2023-03-20T14:36:23.405Z,100.00
2023-03-20T14:39:21.465Z,100.00
2023-03-20T14:42:23.717Z,100.00
2023-03-20T14:45:29.245Z,100.00
2023-03-20T14:48:05.368Z,100.00
2023-03-20T14:50:39.830Z,100.00
2023-03-20T14:53:18.456Z,100.00
2023-03-20T14:55:59.795Z,100.00
2023-03-20T14:58:47.600Z,100.00
2023-03-20T15:01:27.359Z,100.00
2023-03-20T15:04:01.040Z,100.00
2023-03-20T15:06:30.634Z,100.00
2023-03-20T15:09:02.649Z,100.00
2023-03-20T15:11:32.031Z,100.00
2023-03-20T15:14:02.709Z,100.00
2023-03-20T15:16:33.054Z,100.00
2023-03-20T15:19:03.236Z,100.00
2023-03-20T15:21:37.271Z,100.00
2023-03-20T15:24:06.537Z,100.00
2023-03-20T15:26:36.841Z,100.00
2023-03-20T15:29:09.002Z,100.00
2023-03-20T15:31:40.713Z,100.00
2023-03-20T15:34:23.335Z,100.00
2023-03-20T15:36:53.105Z,100.00
2023-03-20T15:39:24.069Z,100.00
2023-03-20T15:41:55.515Z,100.00
2023-03-20T15:44:26.625Z,100.00
2023-03-20T15:47:01.634Z,100.00
2023-03-20T15:49:33.886Z,100.00
2023-03-20T15:52:07.771Z,100.00
2023-03-20T15:54:37.496Z,100.00
2023-03-20T15:57:06.381Z,100.00
2023-03-20T15:59:35.708Z,100.00
2023-03-20T16:02:05.453Z,100.00
2023-03-20T16:04:36.003Z,100.00
2023-03-20T16:07:04.410Z,100.00
2023-03-20T16:09:32.811Z,100.00
2023-03-20T16:12:03.138Z,100.00
2023-03-20T16:14:34.883Z,100.00
2023-03-20T16:17:06.272Z,100.00
2023-03-20T16:19:37.941Z,100.00
2023-03-20T16:22:18.734Z,100.00
2023-03-20T16:24:48.627Z,100.00
2023-03-20T16:27:25.738Z,100.00
2023-03-20T16:29:55.568Z,100.00
2023-03-20T16:32:35.651Z,100.00
2023-03-20T16:35:12.029Z,100.00
2023-03-20T16:37:48.567Z,100.00
2023-03-20T16:40:21.548Z,100.00
2023-03-20T16:42:54.626Z,100.00
2023-03-20T16:45:31.166Z,100.00
2023-03-20T16:48:34.464Z,100.00
2023-03-20T16:51:18.179Z,100.00
2023-03-20T16:53:48.903Z,100.00
2023-03-20T16:56:24.618Z,100.00
2023-03-20T16:58:56.449Z,100.00
2023-03-20T17:01:28.795Z,100.00
2023-03-20T17:03:58.670Z,100.00
2023-03-20T17:06:39.638Z,100.00
2023-03-20T17:09:22.219Z,100.00
2023-03-20T17:11:53.021Z,100.00
2023-03-20T17:14:21.402Z,100.00
2023-03-20T17:16:52.534Z,100.00
2023-03-20T17:19:21.617Z,100.00
2023-03-20T17:21:51.542Z,100.00
2023-03-20T17:24:20.039Z,100.00
2023-03-20T17:26:53.922Z,100.00
2023-03-20T17:29:22.393Z,100.00
2023-03-20T17:31:50.815Z,100.00
2023-03-20T17:34:19.208Z,100.00
2023-03-20T17:36:47.656Z,100.00
2023-03-20T17:39:20.912Z,100.00
2023-03-20T17:41:49.320Z,100.00
2023-03-20T17:44:17.662Z,100.00
2023-03-20T17:46:57.777Z,100.00
2023-03-20T17:49:28.348Z,100.00
2023-03-20T17:51:57.479Z,100.00
2023-03-20T17:54:27.323Z,100.00
2023-03-20T17:56:55.613Z,100.00
2023-03-20T17:59:24.918Z,100.00
2023-03-20T18:01:54.449Z,100.00
2023-03-20T18:04:24.304Z,100.00
2023-03-20T18:06:52.752Z,100.00
2023-03-20T18:09:21.501Z,100.00
2023-03-20T18:11:51.208Z,100.00
2023-03-20T18:14:19.781Z,100.00
2023-03-20T18:16:48.075Z,100.00
2023-03-20T18:19:25.766Z,100.00
2023-03-20T18:21:54.371Z,100.00
2023-03-20T18:24:23.071Z,100.00
2023-03-20T18:26:54.127Z,100.00
2023-03-20T18:29:22.826Z,100.00
2023-03-20T18:31:51.292Z,100.00
2023-03-20T18:34:20.241Z,100.00
2023-03-20T18:36:48.598Z,100.00
2023-03-20T18:39:20.747Z,100.00
2023-03-20T18:41:49.106Z,100.00
2023-03-20T18:44:18.900Z,100.00
2023-03-20T18:46:47.288Z,100.00
2023-03-20T18:49:17.183Z,100.00
2023-03-20T18:51:46.045Z,100.00
2023-03-20T18:54:14.703Z,100.00
2023-03-20T18:56:43.204Z,100.00
2023-03-20T18:59:14.372Z,100.00
2023-03-20T19:01:44.185Z,100.00
2023-03-20T19:04:12.726Z,100.00
2023-03-20T19:06:41.099Z,100.00
2023-03-20T19:09:12.033Z,100.00
2023-03-20T19:11:40.365Z,100.00
2023-03-20T19:14:08.944Z,100.00
2023-03-20T19:16:38.455Z,100.00
2023-03-20T19:19:09.866Z,100.00
2023-03-20T19:21:38.232Z,100.00
2023-03-20T19:24:08.873Z,100.00
2023-03-20T19:26:37.810Z,100.00
2023-03-20T19:29:09.050Z,100.00
2023-03-20T19:31:37.933Z,100.00
2023-03-20T19:34:07.871Z,100.00
2023-03-20T19:36:38.252Z,100.00
2023-03-20T19:39:09.558Z,100.00
2023-03-20T19:41:37.943Z,100.00
2023-03-20T19:44:07.086Z,100.00
2023-03-20T19:46:40.339Z,100.00
2023-03-20T19:49:19.569Z,100.00
2023-03-20T19:51:48.984Z,100.00
2023-03-20T19:54:17.606Z,100.00
2023-03-20T19:56:45.975Z,100.00
2023-03-20T19:59:16.480Z,100.00
2023-03-20T20:01:46.778Z,100.00
2023-03-20T20:04:16.866Z,100.00
2023-03-20T20:06:47.452Z,100.00
2023-03-20T20:09:16.482Z,100.00
2023-03-20T20:11:45.057Z,100.00
2023-03-20T20:14:15.027Z,100.00
2023-03-20T20:16:45.606Z,100.00
2023-03-20T20:19:14.573Z,100.00
2023-03-20T20:22:19.439Z,100.00
2023-03-20T20:24:32.779Z,100.00
2023-03-20T20:27:16.345Z,100.00
2023-03-20T20:29:49.914Z,100.00
2023-03-20T20:32:20.797Z,100.00
2023-03-20T20:38:28.229Z,100.00
2023-03-20T20:40:31.495Z,100.00
2023-03-20T20:43:02.046Z,100.00
2023-03-20T20:45:32.255Z,100.00
2023-03-20T20:48:01.823Z,100.00
2023-03-20T20:50:33.206Z,100.00
2023-03-20T20:53:03.111Z,100.00
2023-03-20T20:55:31.975Z,100.00
2023-03-20T20:58:01.378Z,100.00
2023-03-20T21:00:48.020Z,100.00
2023-03-20T21:03:18.498Z,100.00
2023-03-20T21:05:46.783Z,100.00
2023-03-20T21:08:18.526Z,100.00
2023-03-20T21:10:47.114Z,100.00
2023-03-20T21:13:15.606Z,100.00
2023-03-20T21:15:45.519Z,100.00
2023-03-20T21:18:14.131Z,100.00
2023-03-20T21:20:42.440Z,100.00
2023-03-20T21:23:11.288Z,100.00
2023-03-20T21:25:43.547Z,100.00
2023-03-20T21:28:13.974Z,100.00
2023-03-20T21:31:01.889Z,100.00
2023-03-20T21:33:31.689Z,100.00
2023-03-20T21:36:00.069Z,100.00
2023-03-20T21:41:18.862Z,100.00
2023-03-20T21:43:47.635Z,100.00
2023-03-20T21:46:56.665Z,100.00
2023-03-20T22:03:18.414Z,100.00
2023-03-20T22:09:38.925Z,100.00
2023-03-20T22:12:18.064Z,100.00
2023-03-20T22:15:11.754Z,100.00
2023-03-20T22:31:55.285Z,100.00
2023-03-20T22:37:39.382Z,100.00
2023-03-20T22:42:53.927Z,100.00
2023-03-20T22:47:56.543Z,100.00
2023-03-20T22:50:25.204Z,100.00
2023-03-20T22:52:55.447Z,100.00
2023-03-20T22:55:25.999Z,100.00
2023-03-20T22:58:06.465Z,100.00
2023-03-20T23:00:36.700Z,100.00
2023-03-20T23:03:26.171Z,100.00
2023-03-20T23:05:57.934Z,100.00
2023-03-20T23:08:26.995Z,100.00
2023-03-20T23:10:56.492Z,100.00
2023-03-20T23:13:24.767Z,100.00
2023-03-20T23:15:53.246Z,100.00
2023-03-20T23:18:22.863Z,100.00
2023-03-20T23:20:51.235Z,100.00
2023-03-20T23:23:19.510Z,100.00
2023-03-20T23:25:47.828Z,100.00
2023-03-20T23:28:16.260Z,100.00
2023-03-20T23:30:51.876Z,100.00
2023-03-20T23:33:29.423Z,100.00
2023-03-20T23:36:11.162Z,100.00
2023-03-20T23:38:44.805Z,100.00
2023-03-20T23:41:14.045Z,100.00
2023-03-20T23:43:42.592Z,100.00
2023-03-20T23:46:11.132Z,100.00
2023-03-20T23:48:41.373Z,100.00
2023-03-20T23:51:09.793Z,100.00
2023-03-20T23:53:38.156Z,100.00
2023-03-20T23:56:07.845Z,100.00
2023-03-20T23:58:39.423Z,100.00
